Time;durP1;ratioP1;P1;durP2;ratioP2;P2;SDS_P1;SDS_P2;PMS_P1;PMS_P2;Temp;Humidity;BMP_temperature;BMP_pressure;BME280_temperature;BME280_humidity;BME280_pressure;Samples;Min_cycle;Max_cycle;Signal;HPM_P1;HPM_P2
2023/02/23 00:05:01;;;;;;;74.23;48.77;;;9.30;99.90;;;;;;2613166;54;20471;-74
2023/02/23 00:10:48;;;;;;;74.10;53.50;;;9.30;99.90;;;;;;2612582;54;20392;-72
2023/02/23 00:16:36;;;;;;;76.67;51.47;;;9.30;99.90;;;;;;2612914;54;20134;-73
2023/02/23 00:22:25;;;;;;;83.00;54.20;;;9.30;99.90;;;;;;2613951;54;20664;-73
2023/02/23 00:28:12;;;;;;;76.97;51.60;;;9.20;99.90;;;;;;2614526;54;20412;-74
2023/02/23 00:34:02;;;;;;;77.53;54.83;;;9.20;99.90;;;;;;2614513;54;20207;-73
2023/02/23 00:40:04;;;;;;;85.97;55.10;;;9.20;99.90;;;;;;2612583;54;20425;-74
2023/02/23 00:45:54;;;;;;;79.93;52.63;;;9.20;99.90;;;;;;2612738;47;20433;-74
2023/02/23 00:51:41;;;;;;;82.00;54.23;;;9.20;99.90;;;;;;2612783;54;20367;-74
2023/02/23 00:57:29;;;;;;;77.00;51.90;;;9.20;99.90;;;;;;2612714;54;20130;-74
2023/02/23 01:03:16;;;;;;;80.70;55.37;;;9.20;99.90;;;;;;2612897;54;20266;-74
2023/02/23 01:09:15;;;;;;;79.57;56.53;;;9.20;99.90;;;;;;2613093;54;20130;-74
2023/02/23 01:15:03;;;;;;;83.27;54.57;;;9.20;99.90;;;;;;2613472;54;20387;-73
2023/02/23 01:20:50;;;;;;;87.37;56.03;;;9.10;99.90;;;;;;2614749;46;20530;-73
2023/02/23 01:26:41;;;;;;;81.60;52.43;;;9.10;99.90;;;;;;2615153;54;20154;-73
2023/02/23 01:32:29;;;;;;;79.70;53.07;;;9.10;99.90;;;;;;2614731;54;20366;-74
2023/02/23 01:41:41;;;;;;;83.30;54.40;;;9.20;99.90;;;;;;2614866;54;20652;-74
2023/02/23 01:47:29;;;;;;;88.50;54.70;;;9.10;99.90;;;;;;2614828;54;20396;-73
2023/02/23 01:53:20;;;;;;;74.70;49.10;;;9.10;99.90;;;;;;2615441;54;20138;-74
2023/02/23 01:59:11;;;;;;;83.93;56.17;;;9.10;99.90;;;;;;2614502;54;20391;-74
2023/02/23 02:05:00;;;;;;;92.00;54.93;;;9.10;99.90;;;;;;2614834;54;20403;-71
2023/02/23 02:10:54;;;;;;;85.43;56.00;;;9.10;99.90;;;;;;2615094;39;20764;-72
2023/02/23 02:16:54;;;;;;;82.93;53.27;;;9.10;99.90;;;;;;2614651;54;20977;-71
2023/02/23 02:33:42;;;;;;;109.67;57.43;;;9.00;99.90;;;;;;2613124;54;20396;-71
2023/02/23 02:37:03;;;;;;;89.80;59.00;;;9.00;99.90;;;;;;2613096;54;20391;-71
2023/02/23 02:58:56;;;;;;;91.90;57.60;;;8.90;99.90;;;;;;2612913;54;20371;-71
2023/02/23 04:19:29;;;;;;;113.97;58.67;;;8.70;99.90;;;;;;2614506;39;20784;-72
2023/02/23 04:25:21;;;;;;;125.40;61.60;;;8.70;99.90;;;;;;2614539;54;20145;-72
2023/02/23 04:31:09;;;;;;;112.03;58.57;;;8.70;99.90;;;;;;2614319;54;20618;-73
2023/02/23 04:36:57;;;;;;;107.23;58.70;;;8.60;99.90;;;;;;2614116;54;20155;-73
2023/02/23 04:42:44;;;;;;;118.93;54.80;;;8.60;99.90;;;;;;2614584;54;20126;-74
2023/02/23 04:48:32;;;;;;;130.77;58.87;;;8.60;99.90;;;;;;2614634;54;20154;-73
2023/02/23 04:54:20;;;;;;;108.80;60.73;;;8.60;99.90;;;;;;2614910;54;20123;-74
2023/02/23 05:00:08;;;;;;;122.53;61.33;;;8.60;99.90;;;;;;2614686;54;20118;-73
2023/02/23 05:05:56;;;;;;;109.03;58.70;;;8.50;99.90;;;;;;2615040;54;21012;-74
2023/02/23 05:11:44;;;;;;;106.03;57.33;;;8.50;99.90;;;;;;2615260;54;20143;-74
2023/02/23 05:17:31;;;;;;;109.00;56.47;;;8.50;99.90;;;;;;2614799;54;20134;-74
2023/02/23 05:23:20;;;;;;;112.83;59.50;;;8.50;99.90;;;;;;2614645;54;20125;-74
2023/02/23 05:29:08;;;;;;;114.83;59.20;;;8.50;99.90;;;;;;2614370;54;20439;-72
2023/02/23 05:34:55;;;;;;;116.80;60.93;;;8.50;99.90;;;;;;2614935;54;20235;-74
2023/02/23 05:44:05;;;;;;;122.63;64.40;;;8.50;99.90;;;;;;2614771;54;20435;-73
2023/02/23 05:49:53;;;;;;;129.37;63.53;;;8.50;99.90;;;;;;2614544;54;20126;-73
2023/02/23 05:55:40;;;;;;;136.30;64.60;;;8.50;99.90;;;;;;2614435;54;20163;-73
2023/02/23 06:01:28;;;;;;;140.23;63.20;;;8.50;99.90;;;;;;2615194;39;20635;-73
2023/02/23 06:07:16;;;;;;;140.80;67.67;;;8.50;99.90;;;;;;2614777;54;20134;-73
2023/02/23 06:13:03;;;;;;;137.80;67.40;;;8.50;99.90;;;;;;2614909;54;20161;-73
2023/02/23 06:18:51;;;;;;;146.73;70.10;;;8.50;99.90;;;;;;2614430;54;20142;-73
2023/02/23 06:24:39;;;;;;;151.97;71.20;;;8.40;99.90;;;;;;2615015;54;20150;-74
2023/02/23 06:30:26;;;;;;;149.77;74.03;;;8.40;99.90;;;;;;2614627;54;20146;-72
2023/02/23 06:36:14;;;;;;;147.40;72.50;;;8.40;99.90;;;;;;2614792;54;20142;-73
2023/02/23 06:39:35;;;;;;;144.30;72.60;;;8.40;99.90;;;;;;2614362;54;21190;-73
2023/02/23 06:42:01;;;;;;;153.33;73.00;;;8.40;99.90;;;;;;2614015;54;20146;-73
2023/02/23 06:47:48;;;;;;;160.53;74.60;;;8.40;99.90;;;;;;2614619;54;20660;-73
2023/02/23 06:53:37;;;;;;;133.13;70.73;;;8.40;99.90;;;;;;2614657;54;20158;-73
2023/02/23 06:59:25;;;;;;;139.27;71.63;;;8.50;99.90;;;;;;2614526;54;20909;-74
2023/02/23 07:05:13;;;;;;;135.33;68.83;;;8.50;99.90;;;;;;2614819;39;20582;-74
2023/02/23 07:17:47;;;;;;;132.63;71.07;;;8.50;99.90;;;;;;2612938;54;20412;-73
2023/02/23 07:23:34;;;;;;;133.73;70.73;;;8.50;99.90;;;;;;2613214;54;20434;-74
2023/02/23 07:29:26;;;;;;;145.90;75.40;;;8.50;99.90;;;;;;2612765;46;20130;-73
2023/02/23 07:35:13;;;;;;;137.43;69.83;;;8.50;99.90;;;;;;2613294;39;20943;-73
2023/02/23 07:44:22;;;;;;;149.97;74.30;;;8.60;99.90;;;;;;2612770;54;20526;-73
2023/02/23 07:50:11;;;;;;;124.83;62.47;;;8.50;99.90;;;;;;2613124;54;20266;-74
2023/02/23 07:56:00;;;;;;;122.73;65.40;;;8.50;99.90;;;;;;2614833;39;20788;-74
2023/02/23 08:01:47;;;;;;;116.47;62.83;;;8.50;99.90;;;;;;2614413;54;20387;-73
2023/02/23 08:07:35;;;;;;;110.60;59.17;;;8.50;99.90;;;;;;2614140;54;20126;-73
2023/02/23 08:13:23;;;;;;;112.30;57.73;;;8.40;99.90;;;;;;2614546;54;20375;-74
2023/02/23 08:19:10;;;;;;;102.73;59.30;;;8.30;99.90;;;;;;2615054;46;20161;-73
2023/02/23 08:24:58;;;;;;;118.77;64.23;;;8.30;99.90;;;;;;2615295;54;20667;-74
2023/02/23 08:30:46;;;;;;;120.67;63.27;;;8.20;99.90;;;;;;2615151;54;20126;-73
2023/02/23 08:36:34;;;;;;;125.73;62.33;;;8.30;99.90;;;;;;2615447;31;20610;-73
2023/02/23 08:39:52;;;;;;;125.73;59.17;;;8.20;99.90;;;;;;2614727;54;20508;-74
2023/02/23 08:42:17;;;;;;;96.17;55.67;;;8.20;99.90;;;;;;2615477;39;20586;-73
2023/02/23 08:48:07;;;;;;;109.23;54.43;;;8.20;99.90;;;;;;2614722;54;20130;-73
2023/02/23 08:53:56;;;;;;;114.27;56.00;;;8.30;99.90;;;;;;2614808;54;20379;-73
2023/02/23 08:59:43;;;;;;;117.70;54.00;;;8.30;99.90;;;;;;2615208;54;20387;-73
2023/02/23 09:05:35;;;;;;;126.83;56.20;;;8.30;99.90;;;;;;2614996;54;20122;-73
2023/02/23 09:11:23;;;;;;;105.03;50.80;;;8.40;99.90;;;;;;2614743;54;20399;-74
2023/02/23 09:17:11;;;;;;;116.30;53.57;;;8.60;99.90;;;;;;2614870;54;20924;-73
2023/02/23 09:22:59;;;;;;;109.40;52.47;;;8.60;99.90;;;;;;2615100;39;20752;-73
2023/02/23 09:28:47;;;;;;;97.77;52.97;;;8.70;99.90;;;;;;2614676;54;20390;-73
2023/02/23 09:34:35;;;;;;;89.70;50.60;;;8.90;99.90;;;;;;2615043;54;20371;-73
2023/02/23 09:44:23;;;;;;;84.83;45.07;;;9.00;99.90;;;;;;2614818;54;20531;-73
2023/02/23 09:56:48;;;;;;;68.40;41.03;;;9.00;99.90;;;;;;2614650;54;20387;-74
2023/02/23 10:15:45;;;;;;;62.00;33.97;;;8.80;99.90;;;;;;2614941;54;20483;-73
2023/02/23 10:27:59;;;;;;;65.10;41.70;;;8.70;99.90;;;;;;2614294;54;20443;-73
2023/02/23 10:33:47;;;;;;;74.70;40.37;;;8.70;99.90;;;;;;2614998;54;20387;-74
2023/02/23 10:39:35;;;;;;;77.47;41.40;;;8.70;99.90;;;;;;2614596;39;20234;-74
2023/02/23 10:48:59;;;;;;;86.57;43.50;;;8.60;99.90;;;;;;2614551;54;20350;-73
2023/02/23 10:54:49;;;;;;;84.50;40.93;;;8.60;99.90;;;;;;2614634;54;20426;-74
2023/02/23 11:00:39;;;;;;;84.20;42.50;;;8.60;99.90;;;;;;2614784;54;20519;-73
2023/02/23 11:06:29;;;;;;;84.47;39.37;;;8.70;99.90;;;;;;2614442;54;20387;-74
2023/02/23 11:12:24;;;;;;;79.50;37.70;;;8.70;99.90;;;;;;2614553;54;20399;-74
2023/02/23 11:18:21;;;;;;;73.60;36.73;;;8.60;99.90;;;;;;2614823;39;20755;-73
2023/02/23 11:24:24;;;;;;;69.60;36.80;;;8.40;99.90;;;;;;2615088;39;20844;-74
2023/02/23 11:30:12;;;;;;;69.13;35.23;;;8.30;99.90;;;;;;2614913;39;20729;-74
2023/02/23 11:42:36;;;;;;;57.37;32.10;;;8.60;99.90;;;;;;2614207;54;20957;-73
2023/02/23 11:51:48;;;;;;;62.13;34.97;;;8.60;99.90;;;;;;2614559;54;20459;-73
2023/02/23 11:57:36;;;;;;;60.67;32.40;;;8.60;99.90;;;;;;2614467;54;20498;-74
2023/02/23 12:03:26;;;;;;;58.23;32.87;;;8.50;99.90;;;;;;2614127;54;20154;-73
2023/02/23 12:19:33;;;;;;;57.43;26.33;;;8.30;99.90;;;;;;2613161;54;20500;-74
2023/02/23 12:25:33;;;;;;;52.93;28.07;;;8.40;99.90;;;;;;2612882;54;20952;-72
2023/02/23 12:41:17;;;;;;;46.50;26.00;;;8.60;99.90;;;;;;2613067;54;20383;-71
2023/02/23 12:53:43;;;;;;;42.30;24.87;;;8.50;99.90;;;;;;2612819;54;20530;-71
2023/02/23 13:06:05;;;;;;;42.13;24.97;;;8.60;99.90;;;;;;2613629;54;20466;-71
2023/02/23 13:24:52;;;;;;;40.00;25.20;;;8.50;99.90;;;;;;2613421;54;20971;-72
2023/02/23 13:30:45;;;;;;;41.30;26.00;;;8.40;99.90;;;;;;2615228;54;20402;-71
2023/02/23 13:36:34;;;;;;;44.77;26.83;;;8.40;99.90;;;;;;2614927;54;20483;-70
2023/02/23 13:58:50;;;;;;;44.73;25.10;;;8.30;99.90;;;;;;2614361;54;20371;-71
2023/02/23 14:04:41;;;;;;;34.73;21.73;;;8.30;99.90;;;;;;2614776;54;20906;-71
2023/02/23 14:17:16;;;;;;;32.90;18.47;;;8.40;99.90;;;;;;2614941;54;20387;-70
2023/02/23 14:29:42;;;;;;;28.50;16.60;;;8.60;99.90;;;;;;2614992;39;20680;-71
2023/02/23 14:51:55;;;;;;;22.90;14.87;;;8.50;99.90;;;;;;2613351;54;20946;-70
2023/02/23 14:57:43;;;;;;;27.87;18.27;;;8.50;99.90;;;;;;2613646;39;20523;-72
2023/02/23 15:03:30;;;;;;;22.83;15.90;;;8.50;99.90;;;;;;2613443;54;20373;-71
2023/02/23 15:09:36;;;;;;;25.40;16.00;;;8.40;99.90;;;;;;2613849;39;20189;-70
2023/02/23 15:18:46;;;;;;;31.70;17.43;;;8.50;99.90;;;;;;2614441;54;20979;-71
2023/02/23 15:24:47;;;;;;;36.60;28.40;;;8.40;99.90;;;;;;2614565;54;20371;-71
2023/02/23 15:30:45;;;;;;;31.83;19.90;;;8.40;99.90;;;;;;2614451;54;20367;-72
2023/02/23 15:36:34;;;;;;;33.17;19.53;;;8.40;99.90;;;;;;2614737;54;20395;-71
2023/02/23 15:42:26;;;;;;;30.03;18.27;;;8.40;99.90;;;;;;2614576;54;20912;-71
2023/02/23 16:04:31;;;;;;;36.40;22.50;;;8.40;99.90;;;;;;2614690;54;21074;-71
2023/02/23 16:10:23;;;;;;;31.57;21.80;;;8.30;99.90;;;;;;2614854;39;20814;-74
2023/02/23 16:16:17;;;;;;;44.70;25.33;;;8.40;99.90;;;;;;2614369;54;20350;-76
2023/02/23 16:28:45;;;;;;;45.90;27.10;;;8.30;99.90;;;;;;2614060;54;20383;-76
2023/02/23 16:34:35;;;;;;;43.87;24.80;;;8.20;99.90;;;;;;2614347;54;20407;-76
2023/02/23 16:40:24;;;;;;;36.93;22.87;;;8.20;99.90;;;;;;2615100;54;20432;-76
2023/02/23 16:46:11;;;;;;;37.47;21.13;;;8.10;99.90;;;;;;2615266;54;20366;-75
2023/02/23 16:52:00;;;;;;;33.97;20.10;;;8.10;99.90;;;;;;2615273;54;20147;-75
2023/02/23 16:57:51;;;;;;;30.10;17.47;;;8.00;99.90;;;;;;2614709;54;20403;-75
2023/02/23 17:03:40;;;;;;;29.47;14.50;;;7.90;99.90;;;;;;2615243;54;20411;-76
2023/02/23 17:09:28;;;;;;;29.23;15.97;;;7.90;99.90;;;;;;2615165;54;20980;-75
2023/02/23 17:15:18;;;;;;;26.30;13.70;;;7.80;99.90;;;;;;2615212;54;20118;-75
2023/02/23 17:18:22;;;;;;;25.10;13.90;;;7.80;99.90;;;;;;2614292;47;20427;-75
2023/02/23 17:20:48;;;;;;;25.83;12.97;;;7.70;99.90;;;;;;2614956;54;20546;-76
2023/02/23 17:26:38;;;;;;;29.10;15.60;;;7.70;99.90;;;;;;2615080;54;20376;-76
2023/02/23 17:32:28;;;;;;;29.93;16.43;;;7.70;99.90;;;;;;2615097;54;20937;-75
2023/02/23 17:38:20;;;;;;;24.50;13.13;;;7.70;99.90;;;;;;2614933;54;20384;-76
2023/02/23 17:44:08;;;;;;;25.87;15.20;;;7.70;99.90;;;;;;2615036;54;20379;-75
2023/02/23 17:47:12;;;;;;;32.70;16.80;;;7.70;99.90;;;;;;2614294;54;20439;-76
2023/02/23 17:49:39;;;;;;;31.73;16.87;;;7.70;99.90;;;;;;2614774;54;20410;-75
2023/02/23 17:55:26;;;;;;;24.23;16.10;;;7.70;99.90;;;;;;2615321;54;20414;-76
2023/02/23 18:01:15;;;;;;;31.10;15.07;;;7.70;99.90;;;;;;2615060;39;20528;-77
2023/02/23 18:07:03;;;;;;;37.70;18.57;;;7.70;99.90;;;;;;2614638;54;20794;-75
2023/02/23 18:12:52;;;;;;;42.33;19.70;;;7.70;99.90;;;;;;2614873;54;20625;-75
2023/02/23 18:18:43;;;;;;;36.93;20.20;;;7.70;99.90;;;;;;2614486;54;20387;-75
2023/02/23 18:24:31;;;;;;;40.73;25.73;;;7.70;99.90;;;;;;2615554;39;20737;-76
2023/02/23 18:30:20;;;;;;;42.17;19.80;;;7.80;99.90;;;;;;2614731;54;20387;-76
2023/02/23 18:36:17;;;;;;;43.00;23.60;;;7.80;99.90;;;;;;2615214;39;20836;-76
2023/02/23 18:42:05;;;;;;;34.60;20.10;;;7.80;99.90;;;;;;2614748;54;20407;-75
2023/02/23 18:51:49;;;;;;;33.70;20.47;;;7.80;99.90;;;;;;2615011;54;20370;-76
2023/02/23 18:57:36;;;;;;;42.20;24.53;;;7.80;99.90;;;;;;2614271;54;20852;-75
2023/02/23 19:03:24;;;;;;;40.73;21.60;;;7.80;99.90;;;;;;2614576;54;20246;-76
2023/02/23 19:09:13;;;;;;;37.13;18.97;;;7.80;99.90;;;;;;2614545;46;20270;-75
2023/02/23 19:15:02;;;;;;;29.30;18.40;;;7.80;99.90;;;;;;2614778;54;20901;-76
2023/02/23 19:20:54;;;;;;;31.00;16.97;;;7.80;99.90;;;;;;2614500;54;20399;-77
2023/02/23 19:26:41;;;;;;;30.87;17.20;;;7.70;99.90;;;;;;2614482;54;20390;-75
2023/02/23 19:32:29;;;;;;;35.83;17.40;;;7.60;99.90;;;;;;2615442;39;20533;-76
2023/02/23 19:38:16;;;;;;;33.47;17.20;;;7.50;99.90;;;;;;2614446;54;20167;-76
2023/02/23 19:44:05;;;;;;;34.20;18.77;;;7.40;99.90;;;;;;2614783;54;20243;-75
2023/02/23 19:47:15;;;;;;;41.43;17.73;;;7.40;99.90;;;;;;2614707;54;20411;-75
2023/02/23 19:49:41;;;;;;;36.43;20.40;;;7.30;99.90;;;;;;2613709;47;20410;-76
2023/02/23 19:55:29;;;;;;;32.30;19.20;;;7.40;99.90;;;;;;2614623;54;20147;-75
2023/02/23 20:01:19;;;;;;;38.63;19.53;;;7.30;99.90;;;;;;2614633;54;20254;-76
2023/02/23 20:07:10;;;;;;;38.60;20.90;;;7.30;99.90;;;;;;2614495;39;20815;-76
2023/02/23 20:12:58;;;;;;;38.73;21.17;;;7.40;99.90;;;;;;2614286;54;20435;-75
2023/02/23 20:18:46;;;;;;;35.80;21.77;;;7.40;99.90;;;;;;2614298;54;20138;-76
2023/02/23 20:24:34;;;;;;;41.10;22.80;;;7.40;99.90;;;;;;2614230;54;20395;-77
2023/02/23 20:30:22;;;;;;;49.77;25.90;;;7.50;99.90;;;;;;2614307;54;20447;-76
2023/02/23 20:36:12;;;;;;;42.43;22.83;;;7.50;99.90;;;;;;2614287;54;20142;-76
2023/02/23 20:42:00;;;;;;;43.17;21.67;;;7.50;99.90;;;;;;2614438;54;20877;-76
2023/02/23 20:51:47;;;;;;;42.87;19.50;;;7.60;99.90;;;;;;2614478;54;20547;-77
2023/02/23 20:57:35;;;;;;;36.43;17.60;;;7.40;99.90;;;;;;2613968;54;20413;-77
2023/02/23 21:03:24;;;;;;;19.10;10.73;;;7.10;99.90;;;;;;2614197;54;20979;-76
2023/02/23 21:09:16;;;;;;;12.43;8.90;;;6.90;99.90;;;;;;2614252;54;20398;-75
2023/02/23 21:15:04;;;;;;;18.40;9.10;;;6.70;99.90;;;;;;2614191;54;20358;-76
2023/02/23 21:20:56;;;;;;;16.70;10.17;;;6.70;99.90;;;;;;2614120;54;20420;-75
2023/02/23 21:26:44;;;;;;;24.90;11.17;;;6.70;99.90;;;;;;2614850;54;20472;-75
2023/02/23 21:32:34;;;;;;;20.83;11.10;;;6.60;99.90;;;;;;2614927;54;20126;-76
2023/02/23 21:38:22;;;;;;;25.50;10.60;;;6.40;99.90;;;;;;2614659;54;20342;-76
2023/02/23 21:44:10;;;;;;;21.77;9.30;;;6.30;99.90;;;;;;2615152;54;20390;-75
2023/02/23 21:57:46;;;;;;;22.07;9.90;;;6.10;99.90;;;;;;2613294;46;20454;-76
2023/02/23 22:03:33;;;;;;;27.23;9.60;;;6.00;99.90;;;;;;2613751;54;20948;-75
2023/02/23 22:09:20;;;;;;;20.60;8.87;;;6.00;99.90;;;;;;2613331;54;20325;-76
2023/02/23 22:15:09;;;;;;;32.53;9.50;;;6.00;99.90;;;;;;2613339;54;20167;-76
2023/02/23 22:21:03;;;;;;;28.10;8.67;;;6.00;99.90;;;;;;2614237;39;20620;-75
2023/02/23 22:26:53;;;;;;;36.03;11.77;;;6.00;99.90;;;;;;2614419;54;21012;-75
2023/02/23 22:32:42;;;;;;;38.23;10.63;;;6.00;99.90;;;;;;2614816;54;20519;-76
2023/02/23 22:38:29;;;;;;;25.53;10.83;;;6.00;99.90;;;;;;2614598;54;20374;-75
2023/02/23 22:44:20;;;;;;;35.23;9.03;;;6.00;99.90;;;;;;2615075;54;20131;-76
2023/02/23 22:50:10;;;;;;;32.33;7.97;;;6.00;99.90;;;;;;2614760;54;20366;-75
2023/02/23 22:56:18;;;;;;;34.50;7.77;;;5.90;99.90;;;;;;2613270;54;20452;-76
2023/02/23 23:02:05;;;;;;;29.40;8.50;;;5.80;99.90;;;;;;2612768;54;20122;-76
2023/02/23 23:07:54;;;;;;;24.07;7.33;;;5.80;99.90;;;;;;2613766;39;20641;-77
2023/02/23 23:13:47;;;;;;;16.57;7.17;;;5.70;99.90;;;;;;2613963;31;20830;-76
2023/02/23 23:19:37;;;;;;;34.67;9.37;;;5.60;99.90;;;;;;2613339;54;20359;-75
2023/02/23 23:25:24;;;;;;;22.77;8.30;;;5.60;99.90;;;;;;2613797;39;20887;-76
2023/02/23 23:31:17;;;;;;;31.87;10.10;;;5.60;99.90;;;;;;2615410;31;20701;-75
2023/02/23 23:37:04;;;;;;;22.30;10.43;;;5.60;99.90;;;;;;2614509;54;20487;-76
2023/02/23 23:42:54;;;;;;;23.13;9.67;;;5.50;99.90;;;;;;2614461;54;20187;-76
2023/02/23 23:48:42;;;;;;;23.87;8.03;;;5.50;99.90;;;;;;2614318;54;20410;-76
2023/02/23 23:57:51;;;;;;;22.03;7.53;;;5.50;99.90;;;;;;2614762;39;20765;-76
